createdAt,value
2018-08-20T00:01:45.763Z,11.13
2018-08-20T00:04:14.922Z,10.00
2018-08-20T00:06:53.353Z,9.57
2018-08-20T00:09:31.990Z,11.50
2018-08-20T00:12:01.139Z,10.40
2018-08-20T00:14:30.532Z,10.67
2018-08-20T00:17:00.080Z,10.53
2018-08-20T00:19:29.252Z,10.27
2018-08-20T00:21:58.398Z,10.07
2018-08-20T00:24:27.727Z,9.90
2018-08-20T00:26:59.196Z,11.63
2018-08-20T00:29:28.376Z,11.47
2018-08-20T00:31:57.577Z,10.67
2018-08-20T00:34:26.776Z,11.60
2018-08-20T00:36:56.910Z,11.10
2018-08-20T00:39:26.188Z,11.70
2018-08-20T00:41:55.396Z,11.20
2018-08-20T00:44:24.487Z,11.17
2018-08-20T00:46:59.504Z,10.43
2018-08-20T00:49:28.634Z,10.50
2018-08-20T00:51:57.756Z,10.40
2018-08-20T00:54:26.881Z,9.40
2018-08-20T00:56:56.100Z,11.33
2018-08-20T00:59:25.285Z,11.80
2018-08-20T01:01:54.487Z,10.87
2018-08-20T01:04:23.592Z,10.70
2018-08-20T01:06:52.783Z,10.60
2018-08-20T01:09:21.877Z,10.67
2018-08-20T01:11:50.995Z,10.57
2018-08-20T01:14:20.160Z,11.10
2018-08-20T01:16:50.388Z,10.33
2018-08-20T01:19:19.630Z,11.23
2018-08-20T01:21:48.874Z,10.73
2018-08-20T01:24:18.038Z,11.13
2018-08-20T01:26:47.152Z,11.50
2018-08-20T01:29:16.364Z,12.40
2018-08-20T01:31:45.590Z,11.50
2018-08-20T01:34:14.788Z,11.20
2018-08-20T01:36:44.150Z,11.17
2018-08-20T01:39:13.347Z,11.00
2018-08-20T01:41:42.471Z,11.30
2018-08-20T01:44:11.672Z,11.80
2018-08-20T01:46:40.769Z,11.57
2018-08-20T01:49:09.983Z,12.20
2018-08-20T01:51:39.158Z,12.57
2018-08-20T01:54:08.277Z,12.70
2018-08-20T01:56:37.373Z,12.00
2018-08-20T01:59:06.540Z,11.50
2018-08-20T02:01:35.861Z,11.87
2018-08-20T02:04:05.067Z,11.50
2018-08-20T02:06:34.233Z,11.47
2018-08-20T02:09:03.820Z,13.83
2018-08-20T02:11:33.061Z,13.03
2018-08-20T02:14:02.164Z,11.97
2018-08-20T02:16:31.335Z,12.30
2018-08-20T02:19:00.536Z,13.00
2018-08-20T02:21:29.732Z,13.17
2018-08-20T02:23:59.082Z,11.63
2018-08-20T02:26:28.232Z,12.43
2018-08-20T02:28:57.341Z,11.87
2018-08-20T02:31:26.492Z,13.67
2018-08-20T02:33:55.645Z,13.03
2018-08-20T02:36:24.739Z,12.80
2018-08-20T02:38:53.949Z,12.47
2018-08-20T02:41:23.061Z,13.40
2018-08-20T02:43:52.203Z,13.10
2018-08-20T02:46:32.724Z,13.80
2018-08-20T02:49:01.856Z,13.87
2018-08-20T02:51:31.068Z,13.30
2018-08-20T02:54:00.232Z,13.57
2018-08-20T02:56:29.324Z,13.37
2018-08-20T02:58:58.461Z,14.03
2018-08-20T03:01:27.639Z,13.23
2018-08-20T03:03:56.861Z,13.67
2018-08-20T03:06:25.956Z,12.40
2018-08-20T03:08:55.146Z,13.07
2018-08-20T03:11:24.295Z,12.50
2018-08-20T03:13:53.577Z,13.20
2018-08-20T03:16:22.834Z,14.10
2018-08-20T03:18:51.961Z,12.60
2018-08-20T03:21:21.138Z,13.50
2018-08-20T03:23:50.333Z,14.50
2018-08-20T03:26:19.440Z,13.87
2018-08-20T03:28:48.640Z,13.90
2018-08-20T03:31:17.833Z,13.17
2018-08-20T03:33:46.959Z,13.40
2018-08-20T03:36:16.199Z,13.17
2018-08-20T03:38:45.289Z,13.17
2018-08-20T03:41:14.436Z,13.67
2018-08-20T03:43:44.585Z,14.33
2018-08-20T03:46:13.709Z,14.23
2018-08-20T03:48:42.812Z,13.20
2018-08-20T03:51:12.121Z,13.23
2018-08-20T03:53:41.534Z,13.27
2018-08-20T03:56:10.798Z,12.40
2018-08-20T03:58:39.912Z,13.67
2018-08-20T04:01:09.112Z,14.30
2018-08-20T04:03:38.452Z,12.23
2018-08-20T04:06:07.600Z,14.97
2018-08-20T04:08:36.725Z,13.43
2018-08-20T04:11:05.900Z,13.60
2018-08-20T04:13:35.107Z,12.90
2018-08-20T04:16:04.308Z,13.87
2018-08-20T04:18:33.563Z,12.93
2018-08-20T04:21:02.804Z,13.90
2018-08-20T04:23:32.016Z,14.40
2018-08-20T04:26:01.276Z,14.20
2018-08-20T04:28:30.375Z,14.73
2018-08-20T04:30:59.596Z,13.83
2018-08-20T04:33:28.775Z,13.70
2018-08-20T04:35:57.990Z,13.97
2018-08-20T04:38:27.108Z,13.03
2018-08-20T04:40:56.183Z,14.03
2018-08-20T04:43:25.549Z,13.27
2018-08-20T04:45:54.663Z,12.90
2018-08-20T04:48:23.853Z,13.37
2018-08-20T04:50:53.101Z,13.77
2018-08-20T04:53:22.209Z,13.90
2018-08-20T04:55:51.401Z,14.20
2018-08-20T04:58:20.557Z,13.87
2018-08-20T05:00:49.750Z,14.90
2018-08-20T05:03:18.845Z,13.33
2018-08-20T05:05:48.030Z,14.70
2018-08-20T05:08:17.249Z,14.50
2018-08-20T05:10:46.357Z,13.23
2018-08-20T05:13:15.488Z,13.70
2018-08-20T05:15:44.712Z,13.47
2018-08-20T05:18:13.789Z,13.27
2018-08-20T05:20:42.900Z,14.20
2018-08-20T05:23:12.128Z,13.60
2018-08-20T05:25:41.228Z,13.20
2018-08-20T05:28:10.406Z,14.30
2018-08-20T05:30:39.619Z,13.90
2018-08-20T05:33:08.768Z,14.53
2018-08-20T05:35:37.890Z,14.40
2018-08-20T05:38:07.180Z,13.37
2018-08-20T05:40:36.377Z,13.93
2018-08-20T05:43:05.486Z,14.73
2018-08-20T05:45:34.680Z,12.43
2018-08-20T05:48:03.794Z,14.73
2018-08-20T05:50:33.005Z,13.87
2018-08-20T05:53:02.204Z,14.20
2018-08-20T05:55:31.900Z,12.53
2018-08-20T05:58:01.071Z,12.70
2018-08-20T06:00:30.405Z,15.77
2018-08-20T06:02:59.525Z,13.07
2018-08-20T06:05:28.628Z,14.07
2018-08-20T06:07:57.810Z,13.50
2018-08-20T06:10:27.062Z,13.00
2018-08-20T06:12:56.253Z,12.67
2018-08-20T06:15:25.361Z,11.97
2018-08-20T06:17:54.767Z,12.00
2018-08-20T06:20:23.971Z,11.97
2018-08-20T06:22:53.190Z,11.50
2018-08-20T06:25:22.447Z,11.10
2018-08-20T06:27:51.549Z,11.83
2018-08-20T06:30:20.777Z,11.20
2018-08-20T06:32:49.969Z,12.23
2018-08-20T06:35:19.061Z,10.90
2018-08-20T06:37:48.168Z,10.80
2018-08-20T06:40:17.428Z,12.07
2018-08-20T06:42:46.615Z,11.50
2018-08-20T06:45:16.910Z,9.83
2018-08-20T06:47:46.937Z,10.87
2018-08-20T06:50:16.413Z,9.50
2018-08-20T06:52:46.261Z,11.77
2018-08-20T06:55:16.277Z,10.07
2018-08-20T06:57:46.423Z,10.07
2018-08-20T07:00:16.082Z,9.60
2018-08-20T07:02:45.314Z,9.83
2018-08-20T07:05:14.563Z,9.00
2018-08-20T07:07:43.713Z,10.33
2018-08-20T07:10:13.745Z,9.07
2018-08-20T07:12:43.174Z,8.80
2018-08-20T07:15:14.165Z,9.47
2018-08-20T07:17:43.654Z,9.10
2018-08-20T07:20:14.357Z,8.63
2018-08-20T07:22:43.921Z,9.70
2018-08-20T07:25:13.122Z,8.47
2018-08-20T07:27:42.343Z,7.53
2018-08-20T07:30:12.125Z,7.40
2018-08-20T07:32:41.240Z,8.10
2018-08-20T07:35:10.361Z,7.30
2018-08-20T07:37:39.468Z,7.50
2018-08-20T07:40:08.838Z,8.00
2018-08-20T07:42:37.942Z,7.43
2018-08-20T07:45:07.065Z,7.63
2018-08-20T07:47:36.216Z,6.93
2018-08-20T07:50:05.613Z,6.67
2018-08-20T07:52:34.758Z,6.73
2018-08-20T07:55:03.921Z,6.43
2018-08-20T07:57:33.104Z,6.00
2018-08-20T08:00:02.236Z,6.93
2018-08-20T08:02:31.399Z,5.80
2018-08-20T08:05:00.645Z,7.23
2018-08-20T08:07:29.816Z,6.37
2018-08-20T08:09:58.928Z,6.50
2018-08-20T08:12:28.100Z,6.10
2018-08-20T08:14:57.231Z,5.07
2018-08-20T08:17:26.380Z,6.40
2018-08-20T08:19:55.488Z,5.90
2018-08-20T08:22:24.712Z,6.10
2018-08-20T08:24:54.020Z,6.87
2018-08-20T08:27:23.199Z,6.20
2018-08-20T08:29:52.394Z,5.30
2018-08-20T08:32:21.665Z,5.20
2018-08-20T08:34:50.728Z,6.37
2018-08-20T08:37:20.902Z,6.00
2018-08-20T08:39:50.090Z,5.70
2018-08-20T08:42:19.288Z,6.10
2018-08-20T08:44:48.381Z,6.00
2018-08-20T08:47:17.507Z,5.60
2018-08-20T08:49:46.670Z,4.90
2018-08-20T08:52:15.729Z,5.20
2018-08-20T08:54:44.869Z,4.90
2018-08-20T08:57:14.057Z,5.67
2018-08-20T08:59:43.243Z,5.87
2018-08-20T09:02:12.463Z,5.63
2018-08-20T09:04:41.667Z,5.77
2018-08-20T09:07:10.823Z,5.33
2018-08-20T09:09:39.984Z,5.20
2018-08-20T09:12:09.128Z,4.93
2018-08-20T09:14:38.277Z,5.87
2018-08-20T09:17:07.407Z,5.13
2018-08-20T09:19:36.585Z,5.40
2018-08-20T09:22:06.031Z,5.10
2018-08-20T09:24:35.101Z,4.60
2018-08-20T09:27:04.455Z,4.20
2018-08-20T09:29:33.533Z,4.33
2018-08-20T09:32:02.721Z,5.37
2018-08-20T09:34:31.813Z,4.90
2018-08-20T09:37:01.059Z,4.77
2018-08-20T09:39:30.164Z,5.30
2018-08-20T09:41:59.237Z,6.37
2018-08-20T09:44:28.412Z,5.50
2018-08-20T09:46:57.498Z,5.60
2018-08-20T09:49:26.606Z,4.90
2018-08-20T09:51:55.776Z,5.53
2018-08-20T09:54:24.885Z,5.03
2018-08-20T09:56:54.088Z,4.90
2018-08-20T09:59:23.188Z,4.93
2018-08-20T10:01:52.376Z,5.03
2018-08-20T10:04:21.468Z,4.90
2018-08-20T10:06:50.675Z,4.40
2018-08-20T10:09:19.786Z,5.07
2018-08-20T10:11:48.872Z,5.00
2018-08-20T10:14:17.967Z,5.10
2018-08-20T10:16:47.162Z,4.87
2018-08-20T10:19:16.438Z,4.77
2018-08-20T10:21:45.673Z,5.10
2018-08-20T10:24:14.843Z,4.60
2018-08-20T10:26:44.072Z,5.20
2018-08-20T10:29:13.239Z,5.00
2018-08-20T10:31:42.426Z,4.97
2018-08-20T10:34:11.590Z,4.97
2018-08-20T10:36:41.027Z,5.77
2018-08-20T10:39:11.509Z,5.10
2018-08-20T10:41:41.136Z,5.43
2018-08-20T10:44:11.300Z,6.20
2018-08-20T10:46:40.393Z,4.70
2018-08-20T10:49:09.534Z,5.13
2018-08-20T10:51:38.657Z,5.03
2018-08-20T10:54:07.842Z,4.93
2018-08-20T10:56:36.943Z,5.70
2018-08-20T10:59:06.101Z,5.20
2018-08-20T11:01:35.331Z,4.70
2018-08-20T11:04:05.657Z,4.80
2018-08-20T11:06:34.821Z,5.80
2018-08-20T11:09:04.359Z,5.00
2018-08-20T11:11:33.508Z,5.40
2018-08-20T11:14:02.612Z,5.63
2018-08-20T11:16:31.772Z,5.07
2018-08-20T11:19:00.987Z,5.00
2018-08-20T11:21:30.076Z,5.50
2018-08-20T11:23:59.247Z,5.13
2018-08-20T11:26:28.490Z,4.50
2018-08-20T11:28:57.679Z,4.87
2018-08-20T11:31:26.890Z,5.40
2018-08-20T11:33:56.050Z,5.90
2018-08-20T11:36:25.186Z,4.87
2018-08-20T11:38:54.345Z,5.37
2018-08-20T11:41:23.505Z,4.80
2018-08-20T11:43:52.761Z,5.23
2018-08-20T11:46:21.973Z,4.87
2018-08-20T11:48:51.185Z,5.57
2018-08-20T11:51:20.365Z,7.30
2018-08-20T11:53:49.556Z,5.47
2018-08-20T11:56:18.828Z,4.70
2018-08-20T11:58:47.918Z,4.47
2018-08-20T12:01:17.081Z,4.90
2018-08-20T12:03:50.420Z,5.20
2018-08-20T12:06:19.577Z,4.40
2018-08-20T12:08:48.703Z,5.13
2018-08-20T12:11:18.008Z,5.13
2018-08-20T12:13:47.144Z,4.80
2018-08-20T12:16:16.364Z,4.27
2018-08-20T12:18:45.483Z,5.00
2018-08-20T12:21:14.798Z,4.50
2018-08-20T12:23:43.912Z,5.10
2018-08-20T12:26:13.078Z,4.20
2018-08-20T12:28:42.167Z,4.77
2018-08-20T12:31:11.327Z,5.10
2018-08-20T12:33:40.504Z,4.87
2018-08-20T12:36:09.641Z,4.50
2018-08-20T12:38:38.779Z,5.08
2018-08-20T12:41:07.885Z,4.70
2018-08-20T12:43:37.064Z,4.80
2018-08-20T12:46:06.278Z,4.60
2018-08-20T12:48:35.468Z,4.85
2018-08-20T12:51:04.613Z,4.83
2018-08-20T12:53:33.767Z,5.15
2018-08-20T12:56:02.950Z,7.78
2018-08-20T12:58:32.020Z,6.60
2018-08-20T13:01:01.432Z,6.75
2018-08-20T13:03:30.378Z,4.90
2018-08-20T13:05:59.509Z,6.62
2018-08-20T13:08:28.666Z,4.37
2018-08-20T13:10:57.860Z,4.95
2018-08-20T13:13:26.935Z,4.62
2018-08-20T13:15:56.170Z,5.95
2018-08-20T13:18:25.189Z,4.00
2018-08-20T13:20:54.425Z,5.85
2018-08-20T13:23:23.621Z,5.28
2018-08-20T13:25:52.777Z,7.62
2018-08-20T13:28:21.921Z,4.58
2018-08-20T13:30:51.005Z,4.10
2018-08-20T13:33:20.268Z,4.47
2018-08-20T13:35:49.921Z,4.72
2018-08-20T13:38:19.048Z,6.60
2018-08-20T13:40:48.144Z,4.37
2018-08-20T13:43:17.272Z,4.42
2018-08-20T13:45:46.422Z,4.15
2018-08-20T13:48:16.012Z,4.10
2018-08-20T13:50:45.197Z,4.22
2018-08-20T13:53:14.272Z,4.22
2018-08-20T13:55:43.521Z,4.60
2018-08-20T13:58:12.699Z,4.97
2018-08-20T14:00:41.802Z,3.75
2018-08-20T14:03:11.036Z,4.30
2018-08-20T14:05:40.197Z,4.03
2018-08-20T14:08:09.378Z,6.78
2018-08-20T14:10:38.484Z,4.78
2018-08-20T14:13:07.792Z,4.22
2018-08-20T14:15:37.118Z,4.17
2018-08-20T14:18:06.580Z,3.60
2018-08-20T14:20:35.710Z,4.50
2018-08-20T14:23:04.957Z,4.17
2018-08-20T14:25:34.027Z,4.75
2018-08-20T14:28:03.138Z,4.05
2018-08-20T14:30:32.289Z,4.45
2018-08-20T14:33:01.469Z,4.17
2018-08-20T14:35:30.555Z,4.72
2018-08-20T14:37:59.693Z,3.75
2018-08-20T14:40:28.855Z,4.67
2018-08-20T14:42:58.048Z,4.05
2018-08-20T14:45:31.377Z,4.03
2018-08-20T14:48:00.570Z,3.77
2018-08-20T14:50:29.803Z,3.77
2018-08-20T14:52:59.226Z,3.80
2018-08-20T14:55:28.307Z,4.35
2018-08-20T14:57:57.494Z,4.87
2018-08-20T15:00:26.641Z,3.85
2018-08-20T15:02:55.765Z,4.92
2018-08-20T15:05:24.909Z,4.20
2018-08-20T15:07:54.125Z,4.25
2018-08-20T15:10:23.237Z,4.92
2018-08-20T15:12:52.449Z,4.67
2018-08-20T15:15:21.718Z,5.33
2018-08-20T15:17:50.815Z,4.67
2018-08-20T15:20:19.889Z,4.08
2018-08-20T15:22:49.141Z,4.08
2018-08-20T15:25:18.315Z,4.40
2018-08-20T15:27:47.442Z,4.05
2018-08-20T15:30:16.680Z,3.90
2018-08-20T15:32:45.898Z,3.92
2018-08-20T15:35:14.986Z,4.47
2018-08-20T15:37:44.292Z,4.25
2018-08-20T15:40:13.732Z,3.60
2018-08-20T15:42:42.829Z,4.47
2018-08-20T15:45:11.980Z,4.50
2018-08-20T15:47:41.173Z,3.85
2018-08-20T15:50:10.237Z,3.65
2018-08-20T15:52:39.353Z,3.72
2018-08-20T15:55:08.416Z,3.52
2018-08-20T15:57:37.556Z,4.03
2018-08-20T16:00:08.044Z,4.40
2018-08-20T16:02:37.474Z,4.60
2018-08-20T16:05:06.904Z,3.72
2018-08-20T16:07:36.088Z,4.03
2018-08-20T16:10:07.049Z,3.90
2018-08-20T16:12:36.406Z,3.33
2018-08-20T16:15:06.032Z,3.60
2018-08-20T16:17:35.480Z,4.00
2018-08-20T16:20:04.624Z,4.30
2018-08-20T16:22:33.870Z,3.70
2018-08-20T16:25:03.109Z,4.00
2018-08-20T16:27:32.276Z,4.10
2018-08-20T16:30:01.718Z,4.55
2018-08-20T16:32:30.846Z,4.28
2018-08-20T16:34:59.918Z,4.25
2018-08-20T16:37:29.132Z,4.58
2018-08-20T16:39:58.239Z,3.92
2018-08-20T16:42:27.419Z,4.85
2018-08-20T16:44:56.547Z,4.03
2018-08-20T16:47:25.645Z,4.70
2018-08-20T16:49:54.727Z,4.08
2018-08-20T16:52:23.864Z,4.65
2018-08-20T16:54:53.080Z,4.30
2018-08-20T16:57:22.198Z,5.17
2018-08-20T16:59:51.307Z,4.62
2018-08-20T17:02:28.534Z,4.60
2018-08-20T17:04:57.704Z,4.08
2018-08-20T17:07:26.805Z,4.95
2018-08-20T17:09:55.896Z,4.30
2018-08-20T17:12:25.084Z,4.20
2018-08-20T17:14:54.186Z,4.50
2018-08-20T17:17:23.435Z,5.45
2018-08-20T17:19:52.680Z,5.05
2018-08-20T17:22:21.964Z,5.05
2018-08-20T17:24:54.538Z,4.80
2018-08-20T17:27:23.792Z,5.05
2018-08-20T17:29:54.779Z,5.60
2018-08-20T17:32:23.900Z,5.00
2018-08-20T17:34:52.992Z,4.62
2018-08-20T17:37:22.268Z,6.12
2018-08-20T17:40:11.833Z,5.85
2018-08-20T17:42:41.861Z,5.35
2018-08-20T17:45:10.980Z,5.87
2018-08-20T17:47:40.813Z,5.60
2018-08-20T17:50:26.156Z,5.50
2018-08-20T17:52:55.299Z,5.23
2018-08-20T17:55:24.420Z,6.07
2018-08-20T17:57:53.523Z,5.33
2018-08-20T18:00:27.170Z,5.00
2018-08-20T18:02:56.300Z,5.20
2018-08-20T18:05:25.861Z,5.13
2018-08-20T18:07:55.308Z,5.47
2018-08-20T18:10:24.400Z,5.43
2018-08-20T18:12:53.502Z,5.40
2018-08-20T18:15:22.582Z,4.80
2018-08-20T18:17:51.709Z,4.73
2018-08-20T18:20:20.888Z,5.70
2018-08-20T18:22:50.102Z,5.27
2018-08-20T18:25:19.213Z,5.40
2018-08-20T18:27:48.405Z,5.67
2018-08-20T18:30:17.812Z,5.03
2018-08-20T18:32:47.032Z,5.50
2018-08-20T18:35:22.780Z,6.70
2018-08-20T18:37:52.641Z,7.00
2018-08-20T18:40:21.763Z,5.20
2018-08-20T18:42:51.044Z,6.37
2018-08-20T18:45:20.259Z,6.63
2018-08-20T18:47:49.368Z,7.63
2018-08-20T18:50:18.570Z,5.43
2018-08-20T18:52:47.692Z,6.50
2018-08-20T18:55:16.832Z,6.50
2018-08-20T18:57:46.036Z,6.07
2018-08-20T19:00:15.718Z,6.10
2018-08-20T19:02:50.525Z,6.87
2018-08-20T19:05:20.296Z,6.20
2018-08-20T19:07:49.495Z,6.57
2018-08-20T19:10:27.744Z,6.13
2018-08-20T19:12:56.979Z,6.00
2018-08-20T19:15:36.512Z,6.23
2018-08-20T19:18:07.447Z,7.10
2018-08-20T19:20:36.683Z,6.90
2018-08-20T19:23:05.868Z,6.37
2018-08-20T19:25:36.016Z,7.20
2018-08-20T19:28:10.728Z,6.23
2018-08-20T19:30:40.001Z,6.20
2018-08-20T19:33:14.854Z,6.30
2018-08-20T19:35:44.045Z,6.90
2018-08-20T19:38:13.257Z,6.97
2018-08-20T19:40:42.485Z,8.00
2018-08-20T19:43:11.621Z,7.30
2018-08-20T19:45:43.937Z,7.63
2018-08-20T19:48:13.886Z,7.80
2018-08-20T19:50:43.038Z,7.50
2018-08-20T19:53:22.521Z,7.27
2018-08-20T19:55:51.948Z,7.77
2018-08-20T19:58:26.407Z,7.87
2018-08-20T20:01:07.746Z,7.37
2018-08-20T20:03:36.860Z,7.73
2018-08-20T20:06:06.015Z,7.60
2018-08-20T20:08:35.117Z,8.17
2018-08-20T20:11:04.300Z,8.30
2018-08-20T20:13:33.464Z,7.90
2018-08-20T20:16:02.573Z,8.73
2018-08-20T20:18:32.161Z,7.77
2018-08-20T20:21:01.337Z,7.00
2018-08-20T20:23:30.548Z,7.60
2018-08-20T20:25:59.761Z,7.60
2018-08-20T20:28:28.868Z,8.37
2018-08-20T20:30:57.969Z,7.27
2018-08-20T20:33:27.432Z,7.03
2018-08-20T20:35:56.632Z,7.47
2018-08-20T20:38:25.863Z,8.30
2018-08-20T20:40:55.007Z,7.87
2018-08-20T20:43:28.286Z,7.63
2018-08-20T20:45:57.521Z,7.10
2018-08-20T20:48:26.724Z,9.40
2018-08-20T20:50:55.901Z,8.07
2018-08-20T20:53:25.237Z,7.37
2018-08-20T20:55:55.077Z,7.83
2018-08-20T20:58:31.251Z,7.53
2018-08-20T21:01:01.528Z,6.93
2018-08-20T21:03:30.632Z,7.50
2018-08-20T21:05:59.902Z,7.27
2018-08-20T21:08:37.205Z,6.90
2018-08-20T21:11:06.320Z,7.70
2018-08-20T21:13:35.384Z,7.43
2018-08-20T21:16:09.637Z,7.33
2018-08-20T21:18:51.474Z,8.57
2018-08-20T21:21:21.125Z,6.73
2018-08-20T21:23:50.313Z,6.50
2018-08-20T21:26:19.428Z,7.23
2018-08-20T21:28:49.661Z,6.40
2018-08-20T21:31:21.141Z,7.30
2018-08-20T21:33:58.168Z,7.90
2018-08-20T21:36:27.276Z,8.13
2018-08-20T21:38:56.508Z,7.30
2018-08-20T21:41:27.734Z,7.07
2018-08-20T21:43:56.993Z,7.97
2018-08-20T21:46:26.213Z,7.97
2018-08-20T21:48:55.366Z,7.70
2018-08-20T21:51:30.605Z,7.70
2018-08-20T21:53:59.745Z,8.60
2018-08-20T21:56:40.157Z,8.13
2018-08-20T21:59:09.564Z,8.53
2018-08-20T22:01:38.788Z,8.03
2018-08-20T22:04:13.099Z,8.17
2018-08-20T22:06:42.310Z,8.20
2018-08-20T22:09:11.513Z,10.27
2018-08-20T22:11:40.802Z,8.30
2018-08-20T22:14:10.009Z,8.33
2018-08-20T22:16:39.181Z,8.07
2018-08-20T22:19:08.297Z,7.80
2018-08-20T22:21:37.472Z,9.13
2018-08-20T22:24:06.673Z,9.20
2018-08-20T22:26:39.368Z,9.20
2018-08-20T22:29:08.553Z,9.20
2018-08-20T22:31:38.837Z,9.33
2018-08-20T22:34:07.959Z,9.30
2018-08-20T22:36:37.153Z,9.10
2018-08-20T22:39:08.533Z,10.17
2018-08-20T22:41:37.651Z,10.00
2018-08-20T22:44:06.780Z,9.90
2018-08-20T22:46:35.943Z,9.80
2018-08-20T22:49:05.059Z,9.63
2018-08-20T22:51:34.309Z,9.43
2018-08-20T22:54:03.421Z,10.03
2018-08-20T22:56:34.344Z,9.00
2018-08-20T22:59:04.993Z,10.20
2018-08-20T23:01:34.169Z,11.30
2018-08-20T23:04:03.349Z,10.40
2018-08-20T23:06:32.569Z,9.97
2018-08-20T23:09:18.454Z,9.77
2018-08-20T23:11:47.663Z,10.07
2018-08-20T23:14:16.851Z,10.37
2018-08-20T23:16:49.204Z,10.30
2018-08-20T23:19:18.391Z,10.07
2018-08-20T23:21:48.265Z,10.00
2018-08-20T23:24:17.927Z,9.13
2018-08-20T23:26:47.023Z,9.07
2018-08-20T23:29:16.218Z,10.40
2018-08-20T23:31:45.427Z,9.93
2018-08-20T23:34:15.476Z,8.70
2018-08-20T23:36:44.687Z,8.90
2018-08-20T23:39:16.125Z,9.70
2018-08-20T23:41:45.271Z,9.07
2018-08-20T23:44:15.798Z,9.23
2018-08-20T23:46:49.728Z,9.83
2018-08-20T23:49:18.886Z,11.40
2018-08-20T23:51:47.994Z,9.97
2018-08-20T23:54:17.106Z,9.83
2018-08-20T23:56:46.308Z,11.60
2018-08-20T23:59:15.436Z,10.53
